This is the latest recevied weather packets stored in our database for station/object SV3CQY. If no packets are shown the sender has not sent any weather packets the latest 10 day(s).
| Time | Temp. | Humidity | Pressure | Rain* | Wind** | Luminosity | Snow |
|---|---|---|---|---|---|---|---|
| 1778131510 | 17.22° C | 59% | 1016.9 hPa | 0 mm | - | - | - |
| 1778130310 | 16.67° C | 55% | 1016.6 hPa | 0 mm | - | - | - |
| 1778129410 | 17.22° C | 55% | 1016.4 hPa | 0 mm | - | - | - |
| 1778129128 | 16.67° C | 57% | 1016.3 hPa | 0 mm | - | - | - |
| 1778128227 | 15° C | 58% | 1016 hPa | 0 mm | - | - | - |
| 1778127612 | 13.89° C | 60% | 1015.9 hPa | 0 mm | - | - | - |
| 1778125530 | 12.22° C | 67% | 1015.9 hPa | 0 mm | - | - | - |
| 1778123415 | 11.67° C | 65% | 1015.8 hPa | 0 mm | - | - | - |
| 1778122829 | 11.67° C | 67% | 1015.8 hPa | 0 mm | - | - | - |
| 1778121311 | 12.22° C | 67% | 1015.8 hPa | 0 mm | - | - | - |
| 1778120710 | 12.22° C | 66% | 1015.9 hPa | 0 mm | - | - | - |
| 1778120408 | 12.78° C | 64% | 1015.9 hPa | 0 mm | - | - | - |
| 1778119512 | 12.22° C | 64% | 1015.8 hPa | 0 mm | - | - | - |
| 1778117708 | 12.22° C | 61% | 1015.8 hPa | 0 mm | - | - | - |
| 1778116813 | 12.78° C | 64% | 1015.8 hPa | 0 mm | - | - | - |
| 1778115633 | 12.22° C | 62% | 1015.8 hPa | 0 mm | - | - | - |
| 1778113827 | 13.33° C | 65% | 1016 hPa | 0 mm | - | - | - |
| 1778109328 | 13.89° C | 62% | 1016 hPa | 0 mm | - | - | - |
| 1778108711 | 15° C | 72% | 1016.2 hPa | 0 mm | - | - | - |
| 1778108111 | 13.89° C | 67% | 1016.2 hPa | 0 mm | - | - | - |
| 1778107529 | 13.89° C | 62% | 1016.2 hPa | 0 mm | - | - | - |
| 1778105111 | 13.89° C | 60% | 1016.3 hPa | 0 mm | - | - | - |
| 1778104208 | 14.44° C | 59% | 1016.2 hPa | 0 mm | - | - | - |
| 1778102710 | 16.67° C | 72% | 1016.4 hPa | 0 mm | - | - | - |
| 1778102409 | 16.67° C | 70% | 1016.5 hPa | 0 mm | - | - | - |
* Rain latest hour (hover to see other rain measurements)
** Current wind speed in m/s (hover to see current wind gust speed)